sensor_id;sensor_type;location;lat;lon;timestamp;pressure;altitude;pressure_sealevel;temperature;humidity
67818;BME280;54614;47.576;7.524;2023-04-27T00:00:49;98548.53;;;25.39;34.60
67818;BME280;54614;47.576;7.524;2023-04-27T00:03:15;98554.75;;;25.40;34.88
67818;BME280;54614;47.576;7.524;2023-04-27T00:05:41;98552.88;;;25.41;34.66
67818;BME280;54614;47.576;7.524;2023-04-27T00:08:07;98558.47;;;25.39;34.79
67818;BME280;54614;47.576;7.524;2023-04-27T00:10:33;98557.25;;;25.35;35.03
67818;BME280;54614;47.576;7.524;2023-04-27T00:13:00;98546.50;;;25.35;34.50
67818;BME280;54614;47.576;7.524;2023-04-27T00:15:27;98542.75;;;25.36;34.79
67818;BME280;54614;47.576;7.524;2023-04-27T00:17:54;98542.31;;;25.39;34.54
67818;BME280;54614;47.576;7.524;2023-04-27T00:20:20;98542.31;;;25.39;34.66
67818;BME280;54614;47.576;7.524;2023-04-27T00:22:46;98546.06;;;25.38;34.67
67818;BME280;54614;47.576;7.524;2023-04-27T00:25:12;98546.72;;;25.33;34.81
67818;BME280;54614;47.576;7.524;2023-04-27T00:27:38;98545.22;;;25.37;34.83
67818;BME280;54614;47.576;7.524;2023-04-27T00:30:04;98551.44;;;25.38;34.59
67818;BME280;54614;47.576;7.524;2023-04-27T00:32:30;98544.41;;;25.37;34.86
67818;BME280;54614;47.576;7.524;2023-04-27T00:34:56;98545.88;;;25.33;34.55
67818;BME280;54614;47.576;7.524;2023-04-27T00:37:22;98544.22;;;25.32;34.92
67818;BME280;54614;47.576;7.524;2023-04-27T00:39:48;98536.38;;;25.30;34.89
67818;BME280;54614;47.576;7.524;2023-04-27T00:42:13;98535.34;;;25.31;35.01
67818;BME280;54614;47.576;7.524;2023-04-27T00:44:46;98544.00;;;25.33;34.71
67818;BME280;54614;47.576;7.524;2023-04-27T00:47:12;98538.84;;;25.32;34.94
67818;BME280;54614;47.576;7.524;2023-04-27T00:49:39;98544.00;;;25.33;34.92
67818;BME280;54614;47.576;7.524;2023-04-27T00:52:05;98542.16;;;25.34;34.63
67818;BME280;54614;47.576;7.524;2023-04-27T00:54:32;98539.91;;;25.31;34.57
67818;BME280;54614;47.576;7.524;2023-04-27T00:56:58;98531.81;;;25.31;34.53
67818;BME280;54614;47.576;7.524;2023-04-27T00:59:24;98536.59;;;25.29;35.03
67818;BME280;54614;47.576;7.524;2023-04-27T01:01:51;98541.75;;;25.30;34.91
67818;BME280;54614;47.576;7.524;2023-04-27T01:04:18;98539.91;;;25.31;34.85
67818;BME280;54614;47.576;7.524;2023-04-27T01:06:44;98536.59;;;25.29;34.72
67818;BME280;54614;47.576;7.524;2023-04-27T01:09:10;98538.47;;;25.28;34.75
67818;BME280;54614;47.576;7.524;2023-04-27T01:11:36;98536.19;;;25.25;34.78
67818;BME280;54614;47.576;7.524;2023-04-27T01:14:04;98540.53;;;25.26;34.85
67818;BME280;54614;47.576;7.524;2023-04-27T01:16:34;98538.06;;;25.25;34.83
67818;BME280;54614;47.576;7.524;2023-04-27T01:19:00;98538.69;;;25.27;34.70
67818;BME280;54614;47.576;7.524;2023-04-27T01:21:26;98546.97;;;25.25;35.21
67818;BME280;54614;47.576;7.524;2023-04-27T01:23:53;98544.72;;;25.22;34.91
67818;BME280;54614;47.576;7.524;2023-04-27T01:26:19;98544.50;;;25.24;35.06
67818;BME280;54614;47.576;7.524;2023-04-27T01:28:45;98557.97;;;25.24;34.96
67818;BME280;54614;47.576;7.524;2023-04-27T01:31:11;98551.75;;;25.23;34.95
67818;BME280;54614;47.576;7.524;2023-04-27T01:33:38;98555.47;;;25.22;35.10
67818;BME280;54614;47.576;7.524;2023-04-27T01:36:05;98557.78;;;25.19;34.93
67818;BME280;54614;47.576;7.524;2023-04-27T01:38:34;98546.78;;;25.20;34.97
67818;BME280;54614;47.576;7.524;2023-04-27T01:41:04;98552.19;;;25.20;35.16
67818;BME280;54614;47.576;7.524;2023-04-27T01:43:30;98554.25;;;25.18;35.02
67818;BME280;54614;47.576;7.524;2023-04-27T01:46:08;98548.88;;;25.18;34.88
67818;BME280;54614;47.576;7.524;2023-04-27T01:48:35;98549.31;;;25.15;35.08
67818;BME280;54614;47.576;7.524;2023-04-27T01:51:01;98548.06;;;25.18;34.98
67818;BME280;54614;47.576;7.524;2023-04-27T01:53:28;98553.00;;;25.21;34.86
67818;BME280;54614;47.576;7.524;2023-04-27T01:55:54;98546.19;;;25.18;35.19
67818;BME280;54614;47.576;7.524;2023-04-27T01:58:20;98550.91;;;25.23;34.97
67818;BME280;54614;47.576;7.524;2023-04-27T02:00:46;98554.66;;;25.22;34.87
67818;BME280;54614;47.576;7.524;2023-04-27T02:03:12;98556.13;;;25.18;35.15
67818;BME280;54614;47.576;7.524;2023-04-27T02:05:38;98554.47;;;25.17;35.02
67818;BME280;54614;47.576;7.524;2023-04-27T02:08:04;98553.03;;;25.14;34.92
67818;BME280;54614;47.576;7.524;2023-04-27T02:10:30;98549.75;;;25.12;35.34
67818;BME280;54614;47.576;7.524;2023-04-27T02:12:56;98552.41;;;25.19;35.24
67818;BME280;54614;47.576;7.524;2023-04-27T02:15:22;98543.31;;;25.13;34.92
67818;BME280;54614;47.576;7.524;2023-04-27T02:17:48;98541.22;;;25.15;34.94
67818;BME280;54614;47.576;7.524;2023-04-27T02:20:14;98536.69;;;25.16;34.97
67818;BME280;54614;47.576;7.524;2023-04-27T02:22:41;98532.94;;;25.17;35.30
67818;BME280;54614;47.576;7.524;2023-04-27T02:25:11;98539.38;;;25.16;35.58
67818;BME280;54614;47.576;7.524;2023-04-27T02:27:38;98536.91;;;25.14;35.37
67818;BME280;54614;47.576;7.524;2023-04-27T02:30:06;98531.28;;;25.16;35.34
67818;BME280;54614;47.576;7.524;2023-04-27T02:32:32;98536.47;;;25.17;35.04
67818;BME280;54614;47.576;7.524;2023-04-27T02:34:59;98537.50;;;25.16;35.03
67818;BME280;54614;47.576;7.524;2023-04-27T02:37:25;98536.91;;;25.14;35.04
67818;BME280;54614;47.576;7.524;2023-04-27T02:39:51;98541.44;;;25.14;34.87
67818;BME280;54614;47.576;7.524;2023-04-27T02:42:17;98534.19;;;25.14;35.17
67818;BME280;54614;47.576;7.524;2023-04-27T02:44:43;98538.94;;;25.19;35.06
67818;BME280;54614;47.576;7.524;2023-04-27T02:47:09;98537.72;;;25.15;34.75
67818;BME280;54614;47.576;7.524;2023-04-27T02:49:36;98534.19;;;25.14;35.06
67818;BME280;54614;47.576;7.524;2023-04-27T02:52:02;98532.56;;;25.13;35.41
67818;BME280;54614;47.576;7.524;2023-04-27T02:54:29;98525.53;;;25.12;35.15
67818;BME280;54614;47.576;7.524;2023-04-27T02:56:55;98525.13;;;25.09;35.39
67818;BME280;54614;47.576;7.524;2023-04-27T02:59:21;98531.56;;;25.08;35.05
67818;BME280;54614;47.576;7.524;2023-04-27T03:01:47;98523.25;;;25.09;35.48
67818;BME280;54614;47.576;7.524;2023-04-27T03:04:17;98533.81;;;25.11;35.42
67818;BME280;54614;47.576;7.524;2023-04-27T03:06:43;98535.47;;;25.12;35.16
67818;BME280;54614;47.576;7.524;2023-04-27T03:09:09;98534.03;;;25.09;35.30
67818;BME280;54614;47.576;7.524;2023-04-27T03:11:36;98536.72;;;25.09;35.46
67818;BME280;54614;47.576;7.524;2023-04-27T03:14:02;98539.41;;;25.09;35.30
67818;BME280;54614;47.576;7.524;2023-04-27T03:16:31;98533.81;;;25.11;35.26
67818;BME280;54614;47.576;7.524;2023-04-27T03:18:57;98536.94;;;25.08;35.33
67818;BME280;54614;47.576;7.524;2023-04-27T03:21:23;98534.47;;;25.06;35.42
67818;BME280;54614;47.576;7.524;2023-04-27T03:23:49;98533.00;;;25.10;35.33
67818;BME280;54614;47.576;7.524;2023-04-27T03:26:15;98532.38;;;25.08;35.13
67818;BME280;54614;47.576;7.524;2023-04-27T03:28:41;98533.19;;;25.09;35.08
67818;BME280;54614;47.576;7.524;2023-04-27T03:31:13;98526.59;;;25.04;35.50
67818;BME280;54614;47.576;7.524;2023-04-27T03:33:39;98542.56;;;24.99;35.50
67818;BME280;54614;47.576;7.524;2023-04-27T03:36:07;98536.31;;;25.05;35.51
67818;BME280;54614;47.576;7.524;2023-04-27T03:38:34;98542.31;;;25.08;35.42
67818;BME280;54614;47.576;7.524;2023-04-27T03:41:00;98534.47;;;25.06;35.50
67818;BME280;54614;47.576;7.524;2023-04-27T03:43:26;98538.38;;;25.10;35.38
67818;BME280;54614;47.576;7.524;2023-04-27T03:45:52;98533.00;;;25.10;35.49
67818;BME280;54614;47.576;7.524;2023-04-27T03:48:19;98533.41;;;25.07;35.27
67818;BME280;54614;47.576;7.524;2023-04-27T03:50:45;98543.78;;;25.03;35.39
67818;BME280;54614;47.576;7.524;2023-04-27T03:53:12;98539.22;;;25.04;35.56
67818;BME280;54614;47.576;7.524;2023-04-27T03:55:40;98538.44;;;24.97;35.49
67818;BME280;54614;47.576;7.524;2023-04-27T03:58:08;98538.19;;;25.05;35.15
67818;BME280;54614;47.576;7.524;2023-04-27T04:00:37;98539.03;;;25.05;35.45
67818;BME280;54614;47.576;7.524;2023-04-27T04:03:04;98544.78;;;25.09;35.28
67818;BME280;54614;47.576;7.524;2023-04-27T04:05:30;98546.88;;;25.07;35.56
67818;BME280;54614;47.576;7.524;2023-04-27T04:07:56;98550.78;;;25.11;35.38
67818;BME280;54614;47.576;7.524;2023-04-27T04:10:23;98549.78;;;25.05;35.64
67818;BME280;54614;47.576;7.524;2023-04-27T04:12:49;98545.88;;;25.01;35.61
67818;BME280;54614;47.576;7.524;2023-04-27T04:15:16;98549.56;;;25.07;35.45
67818;BME280;54614;47.576;7.524;2023-04-27T04:17:42;98554.34;;;25.05;35.44
67818;BME280;54614;47.576;7.524;2023-04-27T04:20:08;98553.69;;;25.10;35.22
67818;BME280;54614;47.576;7.524;2023-04-27T04:22:36;98551.41;;;25.13;35.49
67818;BME280;54614;47.576;7.524;2023-04-27T04:25:03;98550.38;;;25.08;35.46
67818;BME280;54614;47.576;7.524;2023-04-27T04:27:29;98557.03;;;25.05;35.60
67818;BME280;54614;47.576;7.524;2023-04-27T04:29:56;98544.63;;;25.04;35.69
67818;BME280;54614;47.576;7.524;2023-04-27T04:32:25;98561.38;;;25.06;35.30
67818;BME280;54614;47.576;7.524;2023-04-27T04:34:56;98551.47;;;25.00;35.45
67818;BME280;54614;47.576;7.524;2023-04-27T04:37:22;98555.59;;;25.02;35.51
67818;BME280;54614;47.576;7.524;2023-04-27T04:39:48;98553.94;;;25.01;35.62
67818;BME280;54614;47.576;7.524;2023-04-27T04:42:14;98547.13;;;24.99;35.45
67818;BME280;54614;47.576;7.524;2023-04-27T04:44:40;98551.25;;;25.01;35.41
67818;BME280;54614;47.576;7.524;2023-04-27T04:47:06;98550.84;;;24.98;35.79
67818;BME280;54614;47.576;7.524;2023-04-27T04:49:35;98557.47;;;25.02;35.39
67818;BME280;54614;47.576;7.524;2023-04-27T04:52:01;98555.81;;;25.01;35.53
67818;BME280;54614;47.576;7.524;2023-04-27T04:54:26;98546.31;;;24.98;35.61
67818;BME280;54614;47.576;7.524;2023-04-27T04:56:52;98552.50;;;24.99;35.56
67818;BME280;54614;47.576;7.524;2023-04-27T04:59:18;98552.91;;;24.96;35.54
67818;BME280;54614;47.576;7.524;2023-04-27T05:01:43;98558.72;;;24.93;35.45
67818;BME280;54614;47.576;7.524;2023-04-27T05:04:09;98569.69;;;24.91;35.55
67818;BME280;54614;47.576;7.524;2023-04-27T05:06:36;98571.38;;;24.86;35.73
67818;BME280;54614;47.576;7.524;2023-04-27T05:09:02;98574.03;;;24.92;35.50
67818;BME280;54614;47.576;7.524;2023-04-27T05:11:31;98569.69;;;24.98;35.76
67818;BME280;54614;47.576;7.524;2023-04-27T05:13:57;98573.41;;;24.90;35.63
67818;BME280;54614;47.576;7.524;2023-04-27T05:16:22;98575.06;;;24.91;35.76
67818;BME280;54614;47.576;7.524;2023-04-27T05:18:50;98576.53;;;24.87;35.83
67818;BME280;54614;47.576;7.524;2023-04-27T05:21:17;98573.63;;;24.89;35.89
67818;BME280;54614;47.576;7.524;2023-04-27T05:23:45;98576.94;;;24.91;35.88
67818;BME280;54614;47.576;7.524;2023-04-27T05:26:16;98578.38;;;24.93;35.53
67818;BME280;54614;47.576;7.524;2023-04-27T05:28:43;98577.16;;;24.89;35.75
67818;BME280;54614;47.576;7.524;2023-04-27T05:31:09;98585.03;;;24.84;35.72
67818;BME280;54614;47.576;7.524;2023-04-27T05:33:35;98573.84;;;24.87;35.88
67818;BME280;54614;47.576;7.524;2023-04-27T05:36:01;98581.50;;;24.90;36.14
67818;BME280;54614;47.576;7.524;2023-04-27T05:38:27;98584.38;;;24.95;35.79
67818;BME280;54614;47.576;7.524;2023-04-27T05:40:57;98585.84;;;24.98;35.69
67818;BME280;54614;47.576;7.524;2023-04-27T05:43:24;98581.28;;;24.98;36.07
67818;BME280;54614;47.576;7.524;2023-04-27T05:45:51;98583.53;;;24.95;35.77
67818;BME280;54614;47.576;7.524;2023-04-27T05:48:19;98589.34;;;24.98;35.73
67818;BME280;54614;47.576;7.524;2023-04-27T05:50:47;98589.75;;;24.95;36.13
67818;BME280;54614;47.576;7.524;2023-04-27T05:53:13;98581.91;;;24.94;35.74
67818;BME280;54614;47.576;7.524;2023-04-27T05:55:39;98589.13;;;24.93;35.95
67818;BME280;54614;47.576;7.524;2023-04-27T05:58:05;98592.66;;;24.94;36.35
67818;BME280;54614;47.576;7.524;2023-04-27T06:00:31;98592.44;;;24.95;36.22
67818;BME280;54614;47.576;7.524;2023-04-27T06:02:57;98608.19;;;24.98;36.41
67818;BME280;54614;47.576;7.524;2023-04-27T06:05:23;98600.50;;;24.95;36.26
67818;BME280;54614;47.576;7.524;2023-04-27T06:07:48;98600.50;;;24.95;36.17
67818;BME280;54614;47.576;7.524;2023-04-27T06:10:14;98606.31;;;24.99;36.58
67818;BME280;54614;47.576;7.524;2023-04-27T06:12:41;98610.44;;;24.95;36.54
67818;BME280;54614;47.576;7.524;2023-04-27T06:15:07;98621.84;;;25.03;36.41
67818;BME280;54614;47.576;7.524;2023-04-27T06:17:38;98614.19;;;25.00;36.30
67818;BME280;54614;47.576;7.524;2023-04-27T06:20:05;98616.25;;;24.98;36.18
67818;BME280;54614;47.576;7.524;2023-04-27T06:22:34;98614.63;;;24.97;36.23
67818;BME280;54614;47.576;7.524;2023-04-27T06:25:04;98615.84;;;25.01;36.18
67818;BME280;54614;47.576;7.524;2023-04-27T06:27:31;98624.34;;;24.98;36.47
67818;BME280;54614;47.576;7.524;2023-04-27T06:29:58;98623.69;;;24.96;36.48
67818;BME280;54614;47.576;7.524;2023-04-27T06:32:24;98628.06;;;24.97;36.36
67818;BME280;54614;47.576;7.524;2023-04-27T06:34:50;98629.94;;;24.97;36.50
67818;BME280;54614;47.576;7.524;2023-04-27T06:37:16;98630.31;;;24.94;36.10
67818;BME280;54614;47.576;7.524;2023-04-27T06:39:45;98625.78;;;25.01;36.44
67818;BME280;54614;47.576;7.524;2023-04-27T06:42:11;98626.53;;;25.15;35.99
67818;BME280;54614;47.576;7.524;2023-04-27T06:44:37;98626.75;;;25.13;36.39
67818;BME280;54614;47.576;7.524;2023-04-27T06:47:04;98633.59;;;25.16;36.38
67818;BME280;54614;47.576;7.524;2023-04-27T06:49:30;98635.00;;;25.18;36.07
67818;BME280;54614;47.576;7.524;2023-04-27T06:51:56;98638.16;;;25.09;38.94
67818;BME280;54614;47.576;7.524;2023-04-27T06:54:21;98629.13;;;24.83;39.89
67818;BME280;54614;47.576;7.524;2023-04-27T06:56:47;98630.78;;;24.84;39.09
67818;BME280;54614;47.576;7.524;2023-04-27T06:59:13;98630.94;;;25.02;37.41
67818;BME280;54614;47.576;7.524;2023-04-27T07:01:39;98632.53;;;25.17;36.63
67818;BME280;54614;47.576;7.524;2023-04-27T07:04:05;98623.56;;;25.29;36.28
67818;BME280;54614;47.576;7.524;2023-04-27T07:06:31;98630.94;;;25.02;39.00
67818;BME280;54614;47.576;7.524;2023-04-27T07:08:58;98622.28;;;24.87;39.67
67818;BME280;54614;47.576;7.524;2023-04-27T07:11:24;98622.09;;;24.82;39.02
67818;BME280;54614;47.576;7.524;2023-04-27T07:13:50;98625.63;;;24.76;39.13
67818;BME280;54614;47.576;7.524;2023-04-27T07:16:17;98628.94;;;24.78;39.18
67818;BME280;54614;47.576;7.524;2023-04-27T07:18:43;98633.28;;;24.79;38.79
67818;BME280;54614;47.576;7.524;2023-04-27T07:21:09;98628.50;;;24.88;38.82
67818;BME280;54614;47.576;7.524;2023-04-27T07:23:35;98627.44;;;24.95;38.35
67818;BME280;54614;47.576;7.524;2023-04-27T07:26:01;98623.50;;;24.98;38.35
67818;BME280;54614;47.576;7.524;2023-04-27T07:28:28;98622.03;;;24.95;38.39
67818;BME280;54614;47.576;7.524;2023-04-27T07:30:54;98615.63;;;24.96;38.14
67818;BME280;54614;47.576;7.524;2023-04-27T07:33:20;98618.75;;;25.00;38.05
67818;BME280;54614;47.576;7.524;2023-04-27T07:35:46;98612.53;;;24.99;37.85
67818;BME280;54614;47.576;7.524;2023-04-27T07:38:14;98607.16;;;24.99;38.17
67818;BME280;54614;47.576;7.524;2023-04-27T07:40:42;98608.38;;;25.03;37.81
67818;BME280;54614;47.576;7.524;2023-04-27T07:43:08;98606.72;;;25.02;38.16
67818;BME280;54614;47.576;7.524;2023-04-27T07:45:34;98603.22;;;25.02;37.73
67818;BME280;54614;47.576;7.524;2023-04-27T07:48:01;98607.75;;;25.01;37.95
67818;BME280;54614;47.576;7.524;2023-04-27T07:50:28;98609.41;;;25.02;37.70
67818;BME280;54614;47.576;7.524;2023-04-27T07:52:55;98605.69;;;25.03;37.69
67818;BME280;54614;47.576;7.524;2023-04-27T07:55:22;98608.38;;;25.03;37.65
67818;BME280;54614;47.576;7.524;2023-04-27T07:57:50;98604.22;;;25.08;37.76
67818;BME280;54614;47.576;7.524;2023-04-27T08:00:17;98606.72;;;25.02;37.54
67818;BME280;54614;47.576;7.524;2023-04-27T08:02:42;98598.66;;;25.02;37.51
67818;BME280;54614;47.576;7.524;2023-04-27T08:05:09;98607.56;;;25.03;37.57
67818;BME280;54614;47.576;7.524;2023-04-27T08:07:35;98604.84;;;25.03;37.61
67818;BME280;54614;47.576;7.524;2023-04-27T08:10:01;98605.03;;;25.08;37.55
67818;BME280;54614;47.576;7.524;2023-04-27T08:12:26;98600.28;;;25.10;37.29
67818;BME280;54614;47.576;7.524;2023-04-27T08:14:52;98605.22;;;25.13;37.35
67818;BME280;54614;47.576;7.524;2023-04-27T08:17:19;98599.63;;;25.15;37.05
67818;BME280;54614;47.576;7.524;2023-04-27T08:19:46;98604.41;;;25.13;37.29
67818;BME280;54614;47.576;7.524;2023-04-27T08:22:12;98603.53;;;25.19;37.00
67818;BME280;54614;47.576;7.524;2023-04-27T08:24:39;98594.41;;;25.20;36.97
67818;BME280;54614;47.576;7.524;2023-04-27T08:27:05;98595.88;;;25.22;37.03
67818;BME280;54614;47.576;7.524;2023-04-27T08:29:31;98591.50;;;25.21;37.07
67818;BME280;54614;47.576;7.524;2023-04-27T08:32:00;98588.19;;;25.26;36.83
67818;BME280;54614;47.576;7.524;2023-04-27T08:34:27;98595.25;;;25.20;37.24
67818;BME280;54614;47.576;7.524;2023-04-27T08:36:53;98597.28;;;25.25;37.23
67818;BME280;54614;47.576;7.524;2023-04-27T08:39:20;98591.50;;;25.21;37.02
67818;BME280;54614;47.576;7.524;2023-04-27T08:41:46;98587.75;;;25.29;36.88
67818;BME280;54614;47.576;7.524;2023-04-27T08:44:12;98583.41;;;25.28;37.07
67818;BME280;54614;47.576;7.524;2023-04-27T08:46:38;98584.84;;;25.30;36.90
67818;BME280;54614;47.576;7.524;2023-04-27T08:49:04;98571.38;;;25.30;36.72
67818;BME280;54614;47.576;7.524;2023-04-27T08:51:32;98570.75;;;25.28;36.94
67818;BME280;54614;47.576;7.524;2023-04-27T08:53:59;98572.59;;;25.34;37.06
67818;BME280;54614;47.576;7.524;2023-04-27T08:56:27;98579.22;;;25.32;36.82
67818;BME280;54614;47.576;7.524;2023-04-27T08:58:55;98577.38;;;25.32;36.93
67818;BME280;54614;47.576;7.524;2023-04-27T09:01:23;98582.72;;;25.39;36.55
67818;BME280;54614;47.576;7.524;2023-04-27T09:03:56;98576.94;;;25.35;37.02
67818;BME280;54614;47.576;7.524;2023-04-27T09:06:48;98577.94;;;25.41;36.91
67818;BME280;54614;47.576;7.524;2023-04-27T09:09:22;98573.97;;;25.44;36.57
67818;BME280;54614;47.576;7.524;2023-04-27T09:11:48;98573.97;;;25.44;36.78
67818;BME280;54614;47.576;7.524;2023-04-27T09:14:22;98580.59;;;25.48;36.86
67818;BME280;54614;47.576;7.524;2023-04-27T09:16:58;98580.81;;;25.46;37.02
67818;BME280;54614;47.576;7.524;2023-04-27T09:19:29;98582.28;;;25.42;37.09
67818;BME280;54614;47.576;7.524;2023-04-27T09:22:10;98579.59;;;25.42;37.68
67818;BME280;54614;47.576;7.524;2023-04-27T09:24:36;98587.53;;;25.30;38.26
67818;BME280;54614;47.576;7.524;2023-04-27T09:27:02;98585.88;;;25.29;37.85
67818;BME280;54614;47.576;7.524;2023-04-27T09:29:37;98589.66;;;25.22;38.52
67818;BME280;54614;47.576;7.524;2023-04-27T09:32:19;98581.97;;;25.25;38.40
67818;BME280;54614;47.576;7.524;2023-04-27T09:34:47;98576.31;;;25.33;38.07
67818;BME280;54614;47.576;7.524;2023-04-27T09:37:13;98579.28;;;25.25;38.79
67818;BME280;54614;47.576;7.524;2023-04-27T09:39:41;98572.28;;;25.18;38.65
67818;BME280;54614;47.576;7.524;2023-04-27T09:42:07;98563.56;;;25.22;38.55
67818;BME280;54614;47.576;7.524;2023-04-27T09:44:34;98575.59;;;25.20;38.67
67818;BME280;54614;47.576;7.524;2023-04-27T09:47:00;98571.03;;;25.20;38.89
67818;BME280;54614;47.576;7.524;2023-04-27T09:49:27;98565.63;;;25.20;38.93
67818;BME280;54614;47.576;7.524;2023-04-27T09:51:56;98570.69;;;25.42;38.51
67818;BME280;54614;47.576;7.524;2023-04-27T09:54:28;98563.94;;;25.89;36.79
67818;BME280;54614;47.576;7.524;2023-04-27T09:57:25;98567.97;;;26.05;36.38
67818;BME280;54614;47.576;7.524;2023-04-27T10:09:02;98554.41;;;26.36;35.63
67818;BME280;54614;47.576;7.524;2023-04-27T10:11:42;98547.66;;;26.45;35.76
67818;BME280;54614;47.576;7.524;2023-04-27T10:14:15;98553.28;;;26.44;35.60
67818;BME280;54614;47.576;7.524;2023-04-27T10:16:52;98553.66;;;26.47;35.36
67818;BME280;54614;47.576;7.524;2023-04-27T10:19:20;98549.75;;;26.43;35.52
67818;BME280;54614;47.576;7.524;2023-04-27T10:21:58;98547.00;;;26.50;35.36
67818;BME280;54614;47.576;7.524;2023-04-27T10:24:40;98544.88;;;26.52;35.42
67818;BME280;54614;47.576;7.524;2023-04-27T10:27:10;98539.03;;;26.55;35.27
67818;BME280;54614;47.576;7.524;2023-04-27T10:29:42;98549.00;;;26.54;35.49
67818;BME280;54614;47.576;7.524;2023-04-27T10:32:19;98545.03;;;26.57;35.67
67818;BME280;54614;47.576;7.524;2023-04-27T10:34:50;98538.38;;;26.59;35.53
67818;BME280;54614;47.576;7.524;2023-04-27T10:37:17;98532.06;;;26.65;35.71
67818;BME280;54614;47.576;7.524;2023-04-27T10:39:50;98536.41;;;26.67;35.60
67818;BME280;54614;47.576;7.524;2023-04-27T10:42:26;98536.63;;;26.65;35.40
67818;BME280;54614;47.576;7.524;2023-04-27T10:44:56;98532.59;;;26.56;35.85
67818;BME280;54614;47.576;7.524;2023-04-27T10:47:23;98535.97;;;26.70;35.38
67818;BME280;54614;47.576;7.524;2023-04-27T10:49:52;98535.00;;;26.64;35.83
67818;BME280;54614;47.576;7.524;2023-04-27T10:52:19;98534.91;;;26.71;35.74
67818;BME280;54614;47.576;7.524;2023-04-27T10:54:45;98534.09;;;26.70;35.72
67818;BME280;54614;47.576;7.524;2023-04-27T10:57:12;98525.31;;;26.75;35.51
67818;BME280;54614;47.576;7.524;2023-04-27T10:59:52;98522.53;;;26.81;35.78
67818;BME280;54614;47.576;7.524;2023-04-27T11:02:28;98521.03;;;26.85;35.40
67818;BME280;54614;47.576;7.524;2023-04-27T11:04:55;98524.63;;;26.79;35.79
67818;BME280;54614;47.576;7.524;2023-04-27T11:07:25;98521.47;;;26.82;35.97
67818;BME280;54614;47.576;7.524;2023-04-27T11:09:52;98519.00;;;26.81;36.24
67818;BME280;54614;47.576;7.524;2023-04-27T11:12:18;98516.53;;;26.79;36.27
67818;BME280;54614;47.576;7.524;2023-04-27T11:14:44;98510.16;;;26.74;36.38
67818;BME280;54614;47.576;7.524;2023-04-27T11:17:10;98506.41;;;26.75;35.97
67818;BME280;54614;47.576;7.524;2023-04-27T11:19:47;98511.00;;;26.74;36.18
67818;BME280;54614;47.576;7.524;2023-04-27T11:22:14;98507.94;;;26.71;36.35
67818;BME280;54614;47.576;7.524;2023-04-27T11:24:52;98510.94;;;26.62;36.39
67818;BME280;54614;47.576;7.524;2023-04-27T11:27:18;98500.59;;;26.59;36.34
67818;BME280;54614;47.576;7.524;2023-04-27T11:29:46;98503.16;;;26.54;36.18
67818;BME280;54614;47.576;7.524;2023-04-27T11:32:22;98506.06;;;26.53;36.24
67818;BME280;54614;47.576;7.524;2023-04-27T11:34:53;98502.47;;;26.59;36.24
67818;BME280;54614;47.576;7.524;2023-04-27T11:37:25;98500.38;;;26.61;36.08
67818;BME280;54614;47.576;7.524;2023-04-27T11:39:53;98490.41;;;26.61;35.99
67818;BME280;54614;47.576;7.524;2023-04-27T11:42:27;98491.22;;;26.62;36.03
67818;BME280;54614;47.576;7.524;2023-04-27T11:45:01;98486.63;;;26.32;36.69
67818;BME280;54614;47.576;7.524;2023-04-27T11:47:30;98486.38;;;26.34;36.62
67818;BME280;54614;47.576;7.524;2023-04-27T11:50:01;98488.47;;;26.50;36.27
67818;BME280;54614;47.576;7.524;2023-04-27T11:52:34;98481.56;;;26.54;36.26
67818;BME280;54614;47.576;7.524;2023-04-27T11:55:02;98488.38;;;26.57;36.21
67818;BME280;54614;47.576;7.524;2023-04-27T11:57:34;98486.38;;;26.52;35.89
67818;BME280;54614;47.576;7.524;2023-04-27T12:00:04;98484.03;;;26.56;35.92
67818;BME280;54614;47.576;7.524;2023-04-27T12:02:39;98477.69;;;26.50;35.93
67818;BME280;54614;47.576;7.524;2023-04-27T12:05:05;98481.81;;;26.53;35.97
67818;BME280;54614;47.576;7.524;2023-04-27T12:07:32;98485.69;;;26.57;35.56
67818;BME280;54614;47.576;7.524;2023-04-27T12:09:58;98479.69;;;26.55;35.52
67818;BME280;54614;47.576;7.524;2023-04-27T12:12:23;98487.41;;;26.51;35.54
67818;BME280;54614;47.576;7.524;2023-04-27T12:14:50;98485.31;;;26.53;35.48
67818;BME280;54614;47.576;7.524;2023-04-27T12:17:17;98488.84;;;26.54;35.13
67818;BME280;54614;47.576;7.524;2023-04-27T12:19:42;98478.28;;;26.52;35.02
67818;BME280;54614;47.576;7.524;2023-04-27T12:22:08;98480.53;;;26.55;35.23
67818;BME280;54614;47.576;7.524;2023-04-27T12:24:34;98479.94;;;26.53;35.25
67818;BME280;54614;47.576;7.524;2023-04-27T12:27:02;98475.81;;;26.51;35.05
67818;BME280;54614;47.576;7.524;2023-04-27T12:29:28;98483.31;;;26.49;35.36
67818;BME280;54614;47.576;7.524;2023-04-27T12:31:59;98471.09;;;26.46;35.18
67818;BME280;54614;47.576;7.524;2023-04-27T12:34:26;98482.25;;;26.50;35.23
67818;BME280;54614;47.576;7.524;2023-04-27T12:36:52;98471.47;;;26.50;35.58
67818;BME280;54614;47.576;7.524;2023-04-27T12:39:21;98474.38;;;26.48;35.25
67818;BME280;54614;47.576;7.524;2023-04-27T12:41:48;98467.94;;;26.49;35.48
67818;BME280;54614;47.576;7.524;2023-04-27T12:44:17;98470.66;;;26.49;35.24
67818;BME280;54614;47.576;7.524;2023-04-27T12:46:44;98461.50;;;26.50;35.26
67818;BME280;54614;47.576;7.524;2023-04-27T12:49:11;98461.94;;;26.29;35.83
67818;BME280;54614;47.576;7.524;2023-04-27T12:51:40;98462.13;;;25.91;36.58
67818;BME280;54614;47.576;7.524;2023-04-27T12:54:08;98461.50;;;25.70;37.49
67818;BME280;54614;47.576;7.524;2023-04-27T12:56:34;98460.78;;;25.57;37.91
67818;BME280;54614;47.576;7.524;2023-04-27T12:59:00;98468.75;;;25.70;37.62
67818;BME280;54614;47.576;7.524;2023-04-27T13:01:26;98463.28;;;26.20;36.41
67818;BME280;54614;47.576;7.524;2023-04-27T13:04:00;98454.41;;;26.38;35.76
67818;BME280;54614;47.576;7.524;2023-04-27T13:06:26;98455.38;;;26.43;35.64
67818;BME280;54614;47.576;7.524;2023-04-27T13:08:53;98454.69;;;26.48;35.40
67818;BME280;54614;47.576;7.524;2023-04-27T13:11:19;98458.88;;;26.44;35.52